ICE434 BIKF-EGPH
Flight info
| Callsign | ICE434 |
|---|---|
| Flight time | 1h 55m |
| Altitude | 33000 |
| Route | OSKUM3A OSKUM DCT RATSU/N0454F330 DCT BARKU DCT BILLY DCT ULLAP DCT RIMOL/N0447F340 DCT NESDI/N0400F240 N560 FOYLE DCT STIRA |
| Aircraft | A21N/M-SDE2E3FGHIRWXY/LB1 |
Departure
| Time | 2026-05-06 18:19 |
|---|---|
| Airport | Keflavik International Airport (BIKF) |
Arrival
| Time | 2026-05-06 20:14 |
|---|---|
| Airport | Edinburgh Airport (EGPH) |
| Time | Latitude | Longitude | Altitude | Speed | Heading |
|---|---|---|---|---|---|
| 2026-05-06 17:39 | 63.99271 | -22.62574 | 194 ft | 0 kts | 51° |
| 2026-05-06 18:04 | 63.99270 | -22.62578 | 200 ft | 2 kts | 51° |
| 2026-05-06 18:04 | 63.99258 | -22.62616 | 199 ft | 2 kts | 50° |
| 2026-05-06 18:05 | 63.99244 | -22.62663 | 193 ft | 4 kts | 73° |
| 2026-05-06 18:05 | 63.99246 | -22.62711 | 198 ft | 4 kts | 130° |
| 2026-05-06 18:05 | 63.99265 | -22.62749 | 197 ft | 4 kts | 161° |
| 2026-05-06 18:05 | 63.99290 | -22.62755 | 198 ft | 3 kts | 180° |
| 2026-05-06 18:06 | 63.99294 | -22.62755 | 197 ft | 0 kts | 179° |
| 2026-05-06 18:09 | 63.99289 | -22.62755 | 186 ft | 2 kts | 179° |
| 2026-05-06 18:09 | 63.99276 | -22.62753 | 193 ft | 0 kts | 174° |
| 2026-05-06 18:09 | 63.99271 | -22.62751 | 189 ft | 2 kts | 172° |
| 2026-05-06 18:09 | 63.99262 | -22.62740 | 191 ft | 3 kts | 151° |
| 2026-05-06 18:10 | 63.99241 | -22.62714 | 195 ft | 2 kts | 155° |
| 2026-05-06 18:10 | 63.99215 | -22.62692 | 186 ft | 6 kts | 161° |
| 2026-05-06 18:10 | 63.99179 | -22.62609 | 185 ft | 9 kts | 113° |
| 2026-05-06 18:10 | 63.99172 | -22.62452 | 186 ft | 11 kts | 87° |
| 2026-05-06 18:11 | 63.99174 | -22.62256 | 186 ft | 13 kts | 89° |
| 2026-05-06 18:11 | 63.99174 | -22.62107 | 186 ft | 15 kts | 91° |
| 2026-05-06 18:11 | 63.99172 | -22.61759 | 186 ft | 18 kts | 91° |
| 2026-05-06 18:11 | 63.99171 | -22.61516 | 186 ft | 16 kts | 90° |
| 2026-05-06 18:12 | 63.99172 | -22.61269 | 186 ft | 11 kts | 90° |
| 2026-05-06 18:12 | 63.99127 | -22.61137 | 188 ft | 13 kts | 163° |
| 2026-05-06 18:12 | 63.99044 | -22.61038 | 184 ft | 15 kts | 133° |
| 2026-05-06 18:12 | 63.98945 | -22.60949 | 186 ft | 17 kts | 179° |
| 2026-05-06 18:13 | 63.98818 | -22.60954 | 184 ft | 19 kts | 180° |
| 2026-05-06 18:13 | 63.98676 | -22.60952 | 186 ft | 21 kts | 179° |
| 2026-05-06 18:13 | 63.98522 | -22.60949 | 183 ft | 21 kts | 179° |
| 2026-05-06 18:13 | 63.98389 | -22.60944 | 184 ft | 20 kts | 179° |
| 2026-05-06 18:14 | 63.98241 | -22.60949 | 184 ft | 22 kts | 181° |
| 2026-05-06 18:14 | 63.98100 | -22.60955 | 188 ft | 20 kts | 181° |
| 2026-05-06 18:14 | 63.97953 | -22.60957 | 189 ft | 22 kts | 180° |
| 2026-05-06 18:14 | 63.97850 | -22.60956 | 184 ft | 20 kts | 179° |
| 2026-05-06 18:15 | 63.97713 | -22.60955 | 185 ft | 21 kts | 180° |
| 2026-05-06 18:15 | 63.97563 | -22.60953 | 184 ft | 23 kts | 179° |
| 2026-05-06 18:15 | 63.97400 | -22.60951 | 188 ft | 24 kts | 180° |
| 2026-05-06 18:15 | 63.97251 | -22.60952 | 188 ft | 21 kts | 180° |
| 2026-05-06 18:16 | 63.97097 | -22.60951 | 194 ft | 23 kts | 180° |
| 2026-05-06 18:16 | 63.96931 | -22.60952 | 185 ft | 25 kts | 180° |
| 2026-05-06 18:16 | 63.96829 | -22.60952 | 184 ft | 14 kts | 181° |
| 2026-05-06 18:16 | 63.96726 | -22.60953 | 187 ft | 16 kts | 180° |
| 2026-05-06 18:17 | 63.96611 | -22.60953 | 184 ft | 14 kts | 180° |
| 2026-05-06 18:17 | 63.96527 | -22.60951 | 184 ft | 13 kts | 179° |
| 2026-05-06 18:17 | 63.96463 | -22.60842 | 185 ft | 14 kts | 103° |
| 2026-05-06 18:17 | 63.96460 | -22.60657 | 181 ft | 9 kts | 83° |
| 2026-05-06 18:18 | 63.96505 | -22.60550 | 186 ft | 12 kts | 9° |
| 2026-05-06 18:18 | 63.96599 | -22.60554 | 185 ft | 20 kts | 360° |
| 2026-05-06 18:18 | 63.97027 | -22.60549 | 182 ft | 104 kts | 0° |
| 2026-05-06 18:18 | 63.97998 | -22.60565 | 367 ft | 159 kts | 2° |
| 2026-05-06 18:19 | 63.99108 | -22.60640 | 1402 ft | 163 kts | 2° |
| 2026-05-06 18:19 | 64.00270 | -22.60674 | 2350 ft | 174 kts | 5° |
| 2026-05-06 18:19 | 64.01517 | -22.60621 | 3167 ft | 188 kts | 4° |
| 2026-05-06 18:19 | 64.02856 | -22.60596 | 4095 ft | 197 kts | 4° |
| 2026-05-06 18:20 | 64.04230 | -22.60363 | 5153 ft | 199 kts | 15° |
| 2026-05-06 18:20 | 64.05461 | -22.58919 | 6154 ft | 205 kts | 40° |
| 2026-05-06 18:20 | 64.06328 | -22.56152 | 6888 ft | 224 kts | 60° |
| 2026-05-06 18:20 | 64.06800 | -22.52684 | 7804 ft | 236 kts | 82° |
| 2026-05-06 18:21 | 64.06548 | -22.48909 | 8803 ft | 247 kts | 104° |
| 2026-05-06 18:21 | 64.05932 | -22.45199 | 9833 ft | 252 kts | 107° |
| 2026-05-06 18:21 | 64.05273 | -22.41372 | 10546 ft | 268 kts | 107° |
| 2026-05-06 18:21 | 64.04569 | -22.37204 | 10948 ft | 294 kts | 107° |
| 2026-05-06 18:22 | 64.03806 | -22.32655 | 11297 ft | 319 kts | 107° |
| 2026-05-06 18:22 | 64.02989 | -22.27755 | 11688 ft | 341 kts | 107° |
| 2026-05-06 18:22 | 64.02134 | -22.22637 | 12228 ft | 356 kts | 108° |
| 2026-05-06 18:22 | 64.01246 | -22.17321 | 13062 ft | 362 kts | 108° |
| 2026-05-06 18:23 | 64.00343 | -22.11908 | 13955 ft | 366 kts | 108° |
| 2026-05-06 18:23 | 63.99440 | -22.06454 | 14727 ft | 370 kts | 108° |
| 2026-05-06 18:23 | 63.98522 | -22.00936 | 15469 ft | 375 kts | 108° |
| 2026-05-06 18:23 | 63.97589 | -21.95360 | 16231 ft | 380 kts | 108° |
| 2026-05-06 18:24 | 63.96639 | -21.89704 | 17018 ft | 384 kts | 108° |
| 2026-05-06 18:24 | 63.95674 | -21.83981 | 17815 ft | 389 kts | 108° |
| 2026-05-06 18:24 | 63.94699 | -21.78201 | 18586 ft | 394 kts | 108° |
| 2026-05-06 18:24 | 63.93707 | -21.72352 | 19250 ft | 398 kts | 108° |
| 2026-05-06 18:25 | 63.92704 | -21.66451 | 19920 ft | 402 kts | 108° |
| 2026-05-06 18:25 | 63.91685 | -21.60490 | 20575 ft | 406 kts | 108° |
| 2026-05-06 18:25 | 63.90658 | -21.54493 | 21222 ft | 410 kts | 108° |
| 2026-05-06 18:25 | 63.89615 | -21.48430 | 21848 ft | 413 kts | 108° |
| 2026-05-06 18:26 | 63.88562 | -21.42317 | 22458 ft | 417 kts | 108° |
| 2026-05-06 18:26 | 63.87499 | -21.36156 | 23051 ft | 421 kts | 108° |
| 2026-05-06 18:26 | 63.86424 | -21.29945 | 23644 ft | 425 kts | 108° |
| 2026-05-06 18:26 | 63.85350 | -21.23764 | 24156 ft | 429 kts | 108° |
| 2026-05-06 18:27 | 63.84249 | -21.17451 | 24653 ft | 432 kts | 108° |
| 2026-05-06 18:27 | 63.83136 | -21.11093 | 25140 ft | 436 kts | 108° |
| 2026-05-06 18:27 | 63.82011 | -21.04685 | 25622 ft | 440 kts | 109° |
| 2026-05-06 18:27 | 63.80870 | -20.98211 | 26106 ft | 444 kts | 109° |
| 2026-05-06 18:28 | 63.79721 | -20.91705 | 26594 ft | 446 kts | 109° |
| 2026-05-06 18:28 | 63.78564 | -20.85186 | 27203 ft | 446 kts | 109° |
| 2026-05-06 18:28 | 63.77403 | -20.78674 | 27795 ft | 446 kts | 109° |
| 2026-05-06 18:28 | 63.76240 | -20.72165 | 28387 ft | 446 kts | 109° |
| 2026-05-06 18:29 | 63.75075 | -20.65668 | 28982 ft | 446 kts | 109° |
| 2026-05-06 18:29 | 63.73909 | -20.59181 | 29547 ft | 446 kts | 109° |
| 2026-05-06 18:29 | 63.72738 | -20.52694 | 30110 ft | 446 kts | 109° |
| 2026-05-06 18:29 | 63.71564 | -20.46210 | 30548 ft | 447 kts | 109° |
| 2026-05-06 18:30 | 63.70305 | -20.39777 | 30938 ft | 449 kts | 111° |
| 2026-05-06 18:30 | 63.69005 | -20.33367 | 31334 ft | 450 kts | 112° |
| 2026-05-06 18:30 | 63.67699 | -20.26957 | 31706 ft | 451 kts | 112° |
| 2026-05-06 18:30 | 63.66381 | -20.20512 | 32076 ft | 452 kts | 112° |
| 2026-05-06 18:31 | 63.65062 | -20.14069 | 32441 ft | 453 kts | 112° |
| 2026-05-06 18:31 | 63.63756 | -20.07713 | 32807 ft | 453 kts | 112° |
| 2026-05-06 18:31 | 63.62428 | -20.01276 | 33127 ft | 455 kts | 113° |
| 2026-05-06 18:31 | 63.61085 | -19.94781 | 33192 ft | 459 kts | 113° |
| 2026-05-06 18:32 | 63.58378 | -19.81750 | 33182 ft | 460 kts | 113° |
| 2026-05-06 18:32 | 63.55663 | -19.68761 | 33171 ft | 459 kts | 113° |
| 2026-05-06 18:33 | 63.52930 | -19.55769 | 33176 ft | 460 kts | 114° |
| 2026-05-06 18:33 | 63.50187 | -19.42808 | 33179 ft | 460 kts | 114° |
| 2026-05-06 18:34 | 63.47430 | -19.29869 | 33174 ft | 461 kts | 114° |
| 2026-05-06 18:34 | 63.44661 | -19.16945 | 33170 ft | 461 kts | 114° |
| 2026-05-06 18:35 | 63.41874 | -19.04017 | 33168 ft | 462 kts | 114° |
| 2026-05-06 18:35 | 63.39073 | -18.91107 | 33158 ft | 462 kts | 114° |
| 2026-05-06 18:36 | 63.36259 | -18.78217 | 33160 ft | 462 kts | 114° |
| 2026-05-06 18:36 | 63.33448 | -18.65418 | 33159 ft | 463 kts | 114° |
| 2026-05-06 18:37 | 63.30605 | -18.52541 | 33156 ft | 464 kts | 114° |
| 2026-05-06 18:37 | 63.27744 | -18.39668 | 33160 ft | 465 kts | 114° |
| 2026-05-06 18:38 | 63.24869 | -18.26810 | 33152 ft | 465 kts | 115° |
| 2026-05-06 18:38 | 63.21979 | -18.13966 | 33151 ft | 465 kts | 115° |
| 2026-05-06 18:39 | 63.19095 | -18.01216 | 33147 ft | 465 kts | 115° |
| 2026-05-06 18:40 | 63.14714 | -17.82004 | 33147 ft | 466 kts | 115° |
| 2026-05-06 18:40 | 63.11781 | -17.69232 | 33137 ft | 466 kts | 115° |
| 2026-05-06 18:41 | 63.08832 | -17.56476 | 33132 ft | 466 kts | 116° |
| 2026-05-06 18:41 | 63.05868 | -17.43721 | 33138 ft | 467 kts | 116° |
| 2026-05-06 18:42 | 63.02891 | -17.30990 | 33128 ft | 467 kts | 116° |
| 2026-05-06 18:42 | 62.99892 | -17.18244 | 33131 ft | 468 kts | 116° |
| 2026-05-06 18:43 | 62.96901 | -17.05604 | 33114 ft | 468 kts | 116° |
| 2026-05-06 18:43 | 62.93884 | -16.92919 | 33125 ft | 469 kts | 116° |
| 2026-05-06 18:44 | 62.90850 | -16.80238 | 33119 ft | 469 kts | 117° |
| 2026-05-06 18:44 | 62.87802 | -16.67583 | 33117 ft | 469 kts | 117° |
| 2026-05-06 18:45 | 62.84743 | -16.54950 | 33106 ft | 469 kts | 117° |
| 2026-05-06 18:45 | 62.81667 | -16.42318 | 33101 ft | 470 kts | 117° |
| 2026-05-06 18:46 | 62.78604 | -16.29807 | 33100 ft | 470 kts | 118° |
| 2026-05-06 18:46 | 62.75508 | -16.17243 | 33095 ft | 470 kts | 118° |
| 2026-05-06 18:47 | 62.72403 | -16.04709 | 33091 ft | 470 kts | 118° |
| 2026-05-06 18:47 | 62.69282 | -15.92184 | 33075 ft | 470 kts | 118° |
| 2026-05-06 18:48 | 62.66149 | -15.79683 | 33065 ft | 471 kts | 119° |
| 2026-05-06 18:48 | 62.62998 | -15.67176 | 33077 ft | 471 kts | 119° |
| 2026-05-06 18:49 | 62.59863 | -15.54802 | 33071 ft | 470 kts | 119° |
| 2026-05-06 18:49 | 62.56696 | -15.42374 | 33072 ft | 471 kts | 120° |
| 2026-05-06 18:50 | 62.53516 | -15.29964 | 33059 ft | 471 kts | 120° |
| 2026-05-06 18:50 | 62.50322 | -15.17576 | 33058 ft | 471 kts | 120° |
| 2026-05-06 18:51 | 62.47116 | -15.05204 | 33042 ft | 472 kts | 120° |
| 2026-05-06 18:51 | 62.43893 | -14.92841 | 33048 ft | 472 kts | 120° |
| 2026-05-06 18:52 | 62.40659 | -14.80504 | 33043 ft | 472 kts | 121° |
| 2026-05-06 18:52 | 62.37413 | -14.68178 | 33034 ft | 473 kts | 121° |
| 2026-05-06 18:53 | 62.34151 | -14.55872 | 33015 ft | 473 kts | 121° |
| 2026-05-06 18:53 | 62.30875 | -14.43585 | 33023 ft | 473 kts | 121° |
| 2026-05-06 18:54 | 62.27595 | -14.31335 | 33014 ft | 473 kts | 121° |
| 2026-05-06 18:54 | 62.24321 | -14.19195 | 33007 ft | 473 kts | 122° |
| 2026-05-06 18:55 | 62.21017 | -14.06981 | 33016 ft | 473 kts | 122° |
| 2026-05-06 18:55 | 62.17698 | -13.94774 | 32996 ft | 474 kts | 122° |
| 2026-05-06 18:56 | 62.14357 | -13.82571 | 32995 ft | 475 kts | 122° |
| 2026-05-06 18:56 | 62.11010 | -13.70400 | 32990 ft | 475 kts | 122° |
| 2026-05-06 18:57 | 62.07669 | -13.58331 | 32985 ft | 475 kts | 123° |
| 2026-05-06 18:57 | 62.04294 | -13.46191 | 32978 ft | 476 kts | 123° |
| 2026-05-06 18:58 | 62.00903 | -13.34073 | 32976 ft | 476 kts | 123° |
| 2026-05-06 18:58 | 61.97496 | -13.21980 | 32962 ft | 476 kts | 123° |
| 2026-05-06 18:59 | 61.94088 | -13.09919 | 32967 ft | 476 kts | 123° |
| 2026-05-06 18:59 | 61.90668 | -12.97878 | 32963 ft | 476 kts | 124° |
| 2026-05-06 19:00 | 61.87238 | -12.85863 | 32953 ft | 476 kts | 124° |
| 2026-05-06 19:00 | 61.83795 | -12.73889 | 32951 ft | 476 kts | 124° |
| 2026-05-06 19:01 | 61.80926 | -12.63960 | 32949 ft | 475 kts | 124° |
| 2026-05-06 19:01 | 61.76911 | -12.50128 | 32945 ft | 475 kts | 124° |
| 2026-05-06 19:02 | 61.74031 | -12.40247 | 32945 ft | 475 kts | 124° |
| 2026-05-06 19:02 | 61.70538 | -12.28322 | 32944 ft | 475 kts | 124° |
| 2026-05-06 19:03 | 61.67078 | -12.16573 | 32934 ft | 475 kts | 124° |
| 2026-05-06 19:03 | 61.63582 | -12.04781 | 32931 ft | 474 kts | 125° |
| 2026-05-06 19:04 | 61.60086 | -11.93040 | 32929 ft | 473 kts | 125° |
| 2026-05-06 19:04 | 61.56582 | -11.81324 | 32927 ft | 473 kts | 125° |
| 2026-05-06 19:05 | 61.53070 | -11.69644 | 32920 ft | 473 kts | 125° |
| 2026-05-06 19:05 | 61.49548 | -11.57995 | 32919 ft | 473 kts | 125° |
| 2026-05-06 19:06 | 61.46023 | -11.46385 | 32918 ft | 472 kts | 125° |
| 2026-05-06 19:06 | 61.42514 | -11.34895 | 32914 ft | 472 kts | 126° |
| 2026-05-06 19:07 | 61.38970 | -11.23344 | 32914 ft | 473 kts | 126° |
| 2026-05-06 19:07 | 61.35408 | -11.11797 | 32914 ft | 473 kts | 126° |
| 2026-05-06 19:08 | 61.31826 | -11.00243 | 32912 ft | 474 kts | 126° |
| 2026-05-06 19:08 | 61.28238 | -10.88719 | 32913 ft | 474 kts | 126° |
| 2026-05-06 19:09 | 61.24655 | -10.77282 | 32909 ft | 475 kts | 126° |
| 2026-05-06 19:09 | 61.21033 | -10.65770 | 32908 ft | 476 kts | 127° |
| 2026-05-06 19:10 | 61.17402 | -10.54280 | 32907 ft | 477 kts | 127° |
| 2026-05-06 19:10 | 61.13750 | -10.42782 | 32913 ft | 478 kts | 127° |
| 2026-05-06 19:11 | 61.10086 | -10.31321 | 32907 ft | 477 kts | 127° |
| 2026-05-06 19:11 | 61.06410 | -10.19865 | 32911 ft | 478 kts | 127° |
| 2026-05-06 19:12 | 61.02745 | -10.08500 | 32913 ft | 479 kts | 127° |
| 2026-05-06 19:12 | 60.98595 | -9.97934 | 32905 ft | 470 kts | 144° |
| 2026-05-06 19:13 | 60.93400 | -9.89912 | 32910 ft | 466 kts | 150° |
| 2026-05-06 19:13 | 60.88148 | -9.82123 | 32904 ft | 466 kts | 149° |
| 2026-05-06 19:14 | 60.82903 | -9.74276 | 32899 ft | 467 kts | 149° |
| 2026-05-06 19:14 | 60.77649 | -9.66432 | 32897 ft | 468 kts | 149° |
| 2026-05-06 19:15 | 60.72382 | -9.58595 | 32899 ft | 468 kts | 150° |
| 2026-05-06 19:15 | 60.67103 | -9.50771 | 32898 ft | 470 kts | 150° |
| 2026-05-06 19:16 | 60.61835 | -9.43001 | 32897 ft | 471 kts | 150° |
| 2026-05-06 19:16 | 60.56520 | -9.35194 | 32894 ft | 471 kts | 150° |
| 2026-05-06 19:17 | 60.51198 | -9.27414 | 32892 ft | 472 kts | 150° |
| 2026-05-06 19:17 | 60.45861 | -9.19642 | 32892 ft | 473 kts | 150° |
| 2026-05-06 19:18 | 60.40506 | -9.11878 | 32894 ft | 473 kts | 150° |
| 2026-05-06 19:18 | 60.35141 | -9.04132 | 32894 ft | 474 kts | 150° |
| 2026-05-06 19:19 | 60.29770 | -8.96413 | 32891 ft | 474 kts | 151° |
| 2026-05-06 19:19 | 60.24385 | -8.88697 | 32890 ft | 474 kts | 151° |
| 2026-05-06 19:20 | 60.19030 | -8.81067 | 32885 ft | 475 kts | 151° |
| 2026-05-06 19:20 | 60.13589 | -8.73333 | 32887 ft | 476 kts | 151° |
| 2026-05-06 19:21 | 60.08203 | -8.65712 | 32889 ft | 477 kts | 152° |
| 2026-05-06 19:21 | 60.02762 | -8.58028 | 32889 ft | 479 kts | 150° |
| 2026-05-06 19:22 | 59.97609 | -8.49396 | 32898 ft | 485 kts | 145° |
| 2026-05-06 19:22 | 59.92519 | -8.40530 | 32888 ft | 486 kts | 145° |
| 2026-05-06 19:23 | 59.87408 | -8.31706 | 32900 ft | 486 kts | 146° |
| 2026-05-06 19:23 | 59.82285 | -8.22905 | 32900 ft | 487 kts | 146° |
| 2026-05-06 19:24 | 59.77136 | -8.14089 | 32897 ft | 488 kts | 146° |
| 2026-05-06 19:24 | 59.71980 | -8.05300 | 32907 ft | 489 kts | 146° |
| 2026-05-06 19:25 | 59.66835 | -7.96573 | 32909 ft | 490 kts | 146° |
| 2026-05-06 19:25 | 59.61652 | -7.87812 | 32910 ft | 491 kts | 146° |
| 2026-05-06 19:26 | 59.56449 | -7.79062 | 32912 ft | 492 kts | 146° |
| 2026-05-06 19:26 | 59.51234 | -7.70314 | 32913 ft | 493 kts | 146° |
| 2026-05-06 19:27 | 59.46003 | -7.61579 | 32915 ft | 493 kts | 146° |
| 2026-05-06 19:27 | 59.40762 | -7.52870 | 32918 ft | 493 kts | 146° |
| 2026-05-06 19:28 | 59.35544 | -7.44244 | 32919 ft | 494 kts | 146° |
| 2026-05-06 19:28 | 59.30290 | -7.35581 | 32920 ft | 494 kts | 147° |
| 2026-05-06 19:29 | 59.25014 | -7.26915 | 32922 ft | 495 kts | 147° |
| 2026-05-06 19:29 | 59.19738 | -7.18292 | 32918 ft | 495 kts | 147° |
| 2026-05-06 19:30 | 59.14449 | -7.09671 | 32921 ft | 494 kts | 147° |
| 2026-05-06 19:30 | 59.09160 | -7.01113 | 32934 ft | 494 kts | 147° |
| 2026-05-06 19:31 | 59.03863 | -6.92578 | 32933 ft | 494 kts | 147° |
| 2026-05-06 19:31 | 58.95960 | -6.79882 | 32931 ft | 493 kts | 147° |
| 2026-05-06 19:32 | 58.90670 | -6.71433 | 32934 ft | 494 kts | 147° |
| 2026-05-06 19:32 | 58.85363 | -6.63000 | 32941 ft | 493 kts | 147° |
| 2026-05-06 19:33 | 58.80071 | -6.54620 | 32941 ft | 494 kts | 147° |
| 2026-05-06 19:33 | 58.74715 | -6.46176 | 32946 ft | 499 kts | 147° |
| 2026-05-06 19:34 | 58.69342 | -6.37719 | 32941 ft | 499 kts | 147° |
| 2026-05-06 19:34 | 58.63951 | -6.29277 | 32940 ft | 499 kts | 147° |
| 2026-05-06 19:35 | 58.58556 | -6.20873 | 32945 ft | 500 kts | 147° |
| 2026-05-06 19:35 | 58.53203 | -6.12559 | 32938 ft | 494 kts | 147° |
| 2026-05-06 19:36 | 58.47846 | -6.04290 | 32952 ft | 499 kts | 147° |
| 2026-05-06 19:36 | 58.42435 | -5.95964 | 32948 ft | 500 kts | 147° |
| 2026-05-06 19:37 | 58.37011 | -5.87644 | 32942 ft | 500 kts | 147° |
| 2026-05-06 19:37 | 58.32492 | -5.80737 | 32945 ft | 501 kts | 147° |
| 2026-05-06 19:38 | 58.26143 | -5.71074 | 32949 ft | 499 kts | 147° |
| 2026-05-06 19:38 | 58.20758 | -5.62918 | 32951 ft | 497 kts | 147° |
| 2026-05-06 19:39 | 58.15307 | -5.54701 | 32951 ft | 501 kts | 146° |
| 2026-05-06 19:39 | 58.09854 | -5.46497 | 32947 ft | 501 kts | 146° |
| 2026-05-06 19:40 | 58.04389 | -5.38317 | 32964 ft | 501 kts | 146° |
| 2026-05-06 19:40 | 57.98803 | -5.30440 | 32960 ft | 505 kts | 149° |
| 2026-05-06 19:41 | 57.93160 | -5.22721 | 32956 ft | 496 kts | 149° |
| 2026-05-06 19:41 | 57.87492 | -5.14970 | 32964 ft | 505 kts | 148° |
| 2026-05-06 19:42 | 57.81807 | -5.07217 | 32962 ft | 505 kts | 148° |
| 2026-05-06 19:42 | 57.76119 | -4.99494 | 32968 ft | 504 kts | 148° |
| 2026-05-06 19:43 | 57.70432 | -4.91799 | 32959 ft | 504 kts | 148° |
| 2026-05-06 19:43 | 57.64755 | -4.84139 | 32963 ft | 500 kts | 148° |
| 2026-05-06 19:44 | 57.59091 | -4.76724 | 32956 ft | 498 kts | 155° |
| 2026-05-06 19:44 | 57.52806 | -4.71430 | 32981 ft | 494 kts | 162° |
| 2026-05-06 19:45 | 57.46481 | -4.66388 | 32979 ft | 494 kts | 162° |
| 2026-05-06 19:45 | 57.40228 | -4.61283 | 32955 ft | 494 kts | 161° |
| 2026-05-06 19:46 | 57.37083 | -4.58714 | 32687 ft | 492 kts | 161° |
| 2026-05-06 19:46 | 57.33948 | -4.56158 | 32316 ft | 491 kts | 161° |
| 2026-05-06 19:46 | 57.30831 | -4.53624 | 31866 ft | 489 kts | 161° |
| 2026-05-06 19:46 | 57.27714 | -4.51093 | 31379 ft | 487 kts | 161° |
| 2026-05-06 19:47 | 57.24613 | -4.48578 | 30860 ft | 485 kts | 161° |
| 2026-05-06 19:47 | 57.21529 | -4.46083 | 30284 ft | 483 kts | 161° |
| 2026-05-06 19:47 | 57.19494 | -4.44440 | 29856 ft | 481 kts | 161° |
| 2026-05-06 19:47 | 57.16428 | -4.41969 | 29137 ft | 480 kts | 161° |
| 2026-05-06 19:48 | 57.12378 | -4.38712 | 28222 ft | 479 kts | 161° |
| 2026-05-06 19:48 | 57.09320 | -4.36261 | 27550 ft | 479 kts | 161° |
| 2026-05-06 19:48 | 57.07253 | -4.34606 | 27101 ft | 479 kts | 161° |
| 2026-05-06 19:48 | 57.04206 | -4.32168 | 26445 ft | 476 kts | 161° |
| 2026-05-06 19:49 | 57.01222 | -4.29783 | 25812 ft | 471 kts | 161° |
| 2026-05-06 19:49 | 56.98239 | -4.27401 | 25174 ft | 465 kts | 161° |
| 2026-05-06 19:49 | 56.95289 | -4.25048 | 24566 ft | 460 kts | 161° |
| 2026-05-06 19:49 | 56.92351 | -4.22850 | 23897 ft | 451 kts | 166° |
| 2026-05-06 19:50 | 56.89361 | -4.21454 | 23139 ft | 437 kts | 176° |
| 2026-05-06 19:50 | 56.86379 | -4.21071 | 22312 ft | 424 kts | 186° |
| 2026-05-06 19:50 | 56.83485 | -4.21555 | 21509 ft | 414 kts | 192° |
| 2026-05-06 19:50 | 56.80647 | -4.22288 | 20723 ft | 408 kts | 193° |
| 2026-05-06 19:51 | 56.77854 | -4.23029 | 19957 ft | 403 kts | 192° |
| 2026-05-06 19:51 | 56.75089 | -4.23733 | 19216 ft | 398 kts | 192° |
| 2026-05-06 19:51 | 56.72347 | -4.24409 | 18480 ft | 394 kts | 191° |
| 2026-05-06 19:51 | 56.69651 | -4.25066 | 17783 ft | 390 kts | 191° |
| 2026-05-06 19:52 | 56.66966 | -4.25721 | 17187 ft | 386 kts | 191° |
| 2026-05-06 19:52 | 56.64316 | -4.26361 | 16634 ft | 383 kts | 191° |
| 2026-05-06 19:52 | 56.61687 | -4.26992 | 16108 ft | 379 kts | 191° |
| 2026-05-06 19:52 | 56.59114 | -4.27606 | 15595 ft | 377 kts | 190° |
| 2026-05-06 19:53 | 56.56492 | -4.28232 | 15080 ft | 373 kts | 190° |
| 2026-05-06 19:53 | 56.53959 | -4.28837 | 14586 ft | 371 kts | 190° |
| 2026-05-06 19:53 | 56.51411 | -4.29451 | 14093 ft | 368 kts | 190° |
| 2026-05-06 19:53 | 56.48885 | -4.30052 | 13587 ft | 365 kts | 190° |
| 2026-05-06 19:54 | 56.46381 | -4.30650 | 13076 ft | 360 kts | 190° |
| 2026-05-06 19:54 | 56.43958 | -4.31227 | 12592 ft | 341 kts | 190° |
| 2026-05-06 19:54 | 56.41665 | -4.31767 | 12145 ft | 324 kts | 190° |
| 2026-05-06 19:54 | 56.39478 | -4.32281 | 11710 ft | 309 kts | 190° |
| 2026-05-06 19:55 | 56.37400 | -4.32772 | 11293 ft | 295 kts | 190° |
| 2026-05-06 19:55 | 56.35404 | -4.33248 | 10877 ft | 283 kts | 190° |
| 2026-05-06 19:55 | 56.33490 | -4.33703 | 10462 ft | 272 kts | 190° |
| 2026-05-06 19:55 | 56.31641 | -4.34141 | 10045 ft | 263 kts | 190° |
| 2026-05-06 19:56 | 56.29860 | -4.34570 | 9626 ft | 254 kts | 190° |
| 2026-05-06 19:56 | 56.28127 | -4.34989 | 9190 ft | 248 kts | 190° |
| 2026-05-06 19:56 | 56.26419 | -4.35421 | 8764 ft | 247 kts | 190° |
| 2026-05-06 19:56 | 56.24735 | -4.35867 | 8334 ft | 242 kts | 190° |
| 2026-05-06 19:57 | 56.23094 | -4.36318 | 7903 ft | 234 kts | 190° |
| 2026-05-06 19:57 | 56.21527 | -4.36765 | 7488 ft | 227 kts | 190° |
| 2026-05-06 19:57 | 56.19999 | -4.37217 | 7100 ft | 218 kts | 190° |
| 2026-05-06 19:57 | 56.18531 | -4.37880 | 6979 ft | 218 kts | 204° |
| 2026-05-06 19:58 | 56.17179 | -4.39129 | 6974 ft | 219 kts | 208° |
| 2026-05-06 19:58 | 56.15852 | -4.40465 | 6983 ft | 219 kts | 208° |
| 2026-05-06 19:58 | 56.14524 | -4.41813 | 6912 ft | 219 kts | 208° |
| 2026-05-06 19:58 | 56.13200 | -4.43158 | 6737 ft | 218 kts | 208° |
| 2026-05-06 19:59 | 56.11883 | -4.44504 | 6557 ft | 218 kts | 208° |
| 2026-05-06 19:59 | 56.10567 | -4.45854 | 6361 ft | 218 kts | 208° |
| 2026-05-06 19:59 | 56.09181 | -4.46833 | 6159 ft | 211 kts | 192° |
| 2026-05-06 19:59 | 56.07774 | -4.47291 | 5945 ft | 201 kts | 189° |
| 2026-05-06 20:00 | 56.06420 | -4.47170 | 5730 ft | 193 kts | 163° |
| 2026-05-06 20:00 | 56.05164 | -4.46320 | 5555 ft | 193 kts | 159° |
| 2026-05-06 20:00 | 56.03921 | -4.45398 | 5398 ft | 193 kts | 159° |
| 2026-05-06 20:00 | 56.02703 | -4.44485 | 5243 ft | 192 kts | 159° |
| 2026-05-06 20:01 | 56.01469 | -4.43531 | 5077 ft | 191 kts | 152° |
| 2026-05-06 20:01 | 56.00506 | -4.41924 | 4924 ft | 195 kts | 131° |
| 2026-05-06 20:01 | 55.99703 | -4.39978 | 4778 ft | 194 kts | 129° |
| 2026-05-06 20:01 | 55.98917 | -4.38020 | 4629 ft | 194 kts | 129° |
| 2026-05-06 20:02 | 55.98155 | -4.36032 | 4533 ft | 195 kts | 123° |
| 2026-05-06 20:02 | 55.97536 | -4.33867 | 4446 ft | 196 kts | 119° |
| 2026-05-06 20:02 | 55.96946 | -4.31668 | 4361 ft | 196 kts | 119° |
| 2026-05-06 20:02 | 55.96359 | -4.29474 | 4279 ft | 196 kts | 119° |
| 2026-05-06 20:03 | 55.95771 | -4.27285 | 4202 ft | 196 kts | 119° |
| 2026-05-06 20:03 | 55.95182 | -4.25093 | 4126 ft | 196 kts | 119° |
| 2026-05-06 20:03 | 55.94494 | -4.23020 | 4038 ft | 194 kts | 128° |
| 2026-05-06 20:03 | 55.93707 | -4.21057 | 3989 ft | 194 kts | 129° |
| 2026-05-06 20:04 | 55.92917 | -4.19110 | 3983 ft | 194 kts | 129° |
| 2026-05-06 20:04 | 55.92125 | -4.17158 | 3989 ft | 194 kts | 129° |
| 2026-05-06 20:04 | 55.91331 | -4.15209 | 3990 ft | 194 kts | 129° |
| 2026-05-06 20:04 | 55.90548 | -4.13289 | 3993 ft | 194 kts | 129° |
| 2026-05-06 20:05 | 55.89754 | -4.11344 | 3989 ft | 194 kts | 129° |
| 2026-05-06 20:05 | 55.89053 | -4.09274 | 3990 ft | 195 kts | 120° |
| 2026-05-06 20:05 | 55.88453 | -4.07097 | 3989 ft | 196 kts | 119° |
| 2026-05-06 20:05 | 55.87859 | -4.04913 | 3989 ft | 196 kts | 119° |
| 2026-05-06 20:06 | 55.87262 | -4.02728 | 3984 ft | 196 kts | 119° |
| 2026-05-06 20:06 | 55.86668 | -4.00547 | 3984 ft | 196 kts | 119° |
| 2026-05-06 20:06 | 55.86113 | -3.98323 | 3982 ft | 198 kts | 108° |
| 2026-05-06 20:06 | 55.85906 | -3.95885 | 3985 ft | 200 kts | 98° |
| 2026-05-06 20:07 | 55.85773 | -3.93415 | 3986 ft | 200 kts | 99° |
| 2026-05-06 20:07 | 55.85628 | -3.90951 | 3982 ft | 200 kts | 99° |
| 2026-05-06 20:07 | 55.85473 | -3.88493 | 3984 ft | 200 kts | 100° |
| 2026-05-06 20:07 | 55.85310 | -3.86036 | 3979 ft | 200 kts | 100° |
| 2026-05-06 20:08 | 55.85146 | -3.83611 | 3982 ft | 200 kts | 100° |
| 2026-05-06 20:08 | 55.84979 | -3.81160 | 3981 ft | 200 kts | 100° |
| 2026-05-06 20:08 | 55.84809 | -3.78695 | 3982 ft | 201 kts | 100° |
| 2026-05-06 20:08 | 55.84639 | -3.76231 | 3987 ft | 200 kts | 100° |
| 2026-05-06 20:09 | 55.84467 | -3.73766 | 3986 ft | 201 kts | 100° |
| 2026-05-06 20:09 | 55.84300 | -3.71352 | 3985 ft | 190 kts | 100° |
| 2026-05-06 20:09 | 55.84265 | -3.69000 | 4033 ft | 194 kts | 81° |
| 2026-05-06 20:09 | 55.84798 | -3.66786 | 3895 ft | 196 kts | 62° |
| 2026-05-06 20:10 | 55.85531 | -3.64746 | 3653 ft | 195 kts | 58° |
| 2026-05-06 20:10 | 55.86273 | -3.62746 | 3385 ft | 194 kts | 59° |
| 2026-05-06 20:10 | 55.87004 | -3.60737 | 3103 ft | 192 kts | 60° |
| 2026-05-06 20:10 | 55.87690 | -3.58748 | 2868 ft | 184 kts | 61° |
| 2026-05-06 20:11 | 55.88347 | -3.56821 | 2614 ft | 179 kts | 62° |
| 2026-05-06 20:11 | 55.88980 | -3.54961 | 2351 ft | 172 kts | 62° |
| 2026-05-06 20:11 | 55.89588 | -3.53174 | 2098 ft | 165 kts | 62° |
| 2026-05-06 20:11 | 55.90134 | -3.51572 | 1878 ft | 138 kts | 63° |
| 2026-05-06 20:12 | 55.90612 | -3.50159 | 1672 ft | 130 kts | 64° |
| 2026-05-06 20:12 | 55.91080 | -3.48781 | 1503 ft | 130 kts | 64° |
| 2026-05-06 20:12 | 55.91545 | -3.47413 | 1324 ft | 128 kts | 63° |
| 2026-05-06 20:12 | 55.92004 | -3.46060 | 1143 ft | 127 kts | 63° |
| 2026-05-06 20:13 | 55.92452 | -3.44741 | 963 ft | 125 kts | 63° |
| 2026-05-06 20:13 | 55.92906 | -3.43404 | 781 ft | 124 kts | 63° |
| 2026-05-06 20:13 | 55.93343 | -3.42115 | 614 ft | 123 kts | 63° |
| 2026-05-06 20:13 | 55.93788 | -3.40826 | 453 ft | 122 kts | 63° |
| 2026-05-06 20:14 | 55.94221 | -3.39519 | 276 ft | 123 kts | 62° |
| 2026-05-06 20:14 | 55.94672 | -3.38230 | 116 ft | 119 kts | 62° |
| 2026-05-06 20:14 | 55.95047 | -3.37109 | 111 ft | 81 kts | 60° |
| 2026-05-06 20:14 | 55.95226 | -3.36577 | 112 ft | 26 kts | 60° |
| 2026-05-06 20:15 | 55.95236 | -3.36402 | 112 ft | 9 kts | 155° |
| 2026-05-06 20:15 | 55.95199 | -3.36370 | 112 ft | 8 kts | 152° |
| 2026-05-06 20:15 | 55.95151 | -3.36289 | 112 ft | 11 kts | 122° |
| 2026-05-06 20:15 | 55.95121 | -3.36142 | 113 ft | 11 kts | 110° |
| 2026-05-06 20:16 | 55.95111 | -3.36092 | 110 ft | 5 kts | 110° |
| 2026-05-06 20:16 | 55.95094 | -3.36012 | 111 ft | 8 kts | 111° |
| 2026-05-06 20:16 | 55.95065 | -3.35900 | 111 ft | 11 kts | 120° |
| 2026-05-06 20:16 | 55.95002 | -3.35849 | 113 ft | 11 kts | 200° |
| 2026-05-06 20:17 | 55.94991 | -3.35856 | 111 ft | 2 kts | 198° |
| 2026-05-06 20:17 | 55.94970 | -3.35865 | 113 ft | 5 kts | 182° |
| 2026-05-06 20:17 | 55.94928 | -3.35864 | 113 ft | 8 kts | 206° |
| 2026-05-06 20:17 | 55.94912 | -3.35901 | 113 ft | 3 kts | 255° |
| 2026-05-06 20:18 | 55.94903 | -3.35960 | 113 ft | 5 kts | 253° |
| 2026-05-06 20:18 | 55.94898 | -3.35989 | 113 ft | 1 kts | 253° |
| 2026-05-06 20:18 | 55.94895 | -3.36006 | 111 ft | 0 kts | 254° |